createdAt,value
2018-01-04T00:00:01.538Z,0
2018-01-04T00:01:11.422Z,0
2018-01-04T00:02:21.266Z,0
2018-01-04T00:03:31.359Z,0
2018-01-04T00:04:41.143Z,0
2018-01-04T00:05:51.201Z,0
2018-01-04T00:07:01.323Z,0
2018-01-04T00:08:10.857Z,0
2018-01-04T00:09:20.469Z,0
2018-01-04T00:10:30.284Z,0
2018-01-04T00:11:39.826Z,0
2018-01-04T00:12:49.386Z,0
2018-01-04T00:13:58.924Z,0
2018-01-04T00:15:09.007Z,0
2018-01-04T00:16:18.821Z,0
2018-01-04T00:17:28.881Z,0
2018-01-04T00:18:38.723Z,0
2018-01-04T00:19:48.866Z,0
2018-01-04T00:20:58.913Z,0
2018-01-04T00:22:09.036Z,0
2018-01-04T00:23:18.851Z,0
2018-01-04T00:24:28.653Z,0
2018-01-04T00:25:38.715Z,0
2018-01-04T00:26:48.757Z,0
2018-01-04T00:27:58.807Z,0
2018-01-04T00:29:08.597Z,0
2018-01-04T00:30:18.663Z,0
2018-01-04T00:31:28.736Z,0
2018-01-04T00:32:38.552Z,0
2018-01-04T00:33:48.615Z,0
2018-01-04T00:34:59.302Z,0
2018-01-04T00:36:09.426Z,0
2018-01-04T00:37:19.497Z,0
2018-01-04T00:38:29.322Z,0
2018-01-04T00:39:39.390Z,0
2018-01-04T00:40:49.446Z,0
2018-01-04T00:41:59.504Z,0
2018-01-04T00:43:09.326Z,0
2018-01-04T00:44:19.422Z,0
2018-01-04T00:45:29.487Z,0
2018-01-04T00:46:39.534Z,0
2018-01-04T00:47:49.581Z,0
2018-01-04T00:48:59.662Z,0
2018-01-04T00:50:09.713Z,0
2018-01-04T00:51:19.782Z,0
2018-01-04T00:52:29.839Z,0
2018-01-04T00:53:39.917Z,0
2018-01-04T00:54:50.477Z,0
2018-01-04T00:56:00.548Z,0
2018-01-04T00:57:10.606Z,0
2018-01-04T00:58:20.396Z,0
2018-01-04T00:59:30.499Z,0
2018-01-04T01:00:40.541Z,0
2018-01-04T01:01:50.588Z,0
2018-01-04T01:03:00.393Z,0
2018-01-04T01:04:10.446Z,0
2018-01-04T01:05:20.262Z,0
2018-01-04T01:06:30.062Z,0
2018-01-04T01:07:39.873Z,0
2018-01-04T01:08:49.690Z,0
2018-01-04T01:09:59.750Z,0
2018-01-04T01:11:09.805Z,0
2018-01-04T01:12:19.609Z,0
2018-01-04T01:13:30.367Z,0
2018-01-04T01:14:40.449Z,0
2018-01-04T01:15:50.501Z,0
2018-01-04T01:17:00.568Z,0
2018-01-04T01:18:10.650Z,0
2018-01-04T01:19:20.721Z,0
2018-01-04T01:20:30.533Z,0
2018-01-04T01:21:40.592Z,0
2018-01-04T01:22:50.709Z,0
2018-01-04T01:24:00.500Z,0
2018-01-04T01:25:10.561Z,0
2018-01-04T01:26:20.358Z,0
2018-01-04T01:27:30.153Z,0
2018-01-04T01:28:39.694Z,0
2018-01-04T01:29:49.746Z,0
2018-01-04T01:30:59.544Z,0
2018-01-04T01:32:09.606Z,0
2018-01-04T01:33:19.412Z,0
2018-01-04T01:34:29.229Z,0
2018-01-04T01:35:39.293Z,0
2018-01-04T01:36:49.363Z,0
2018-01-04T01:37:59.432Z,0
2018-01-04T01:39:09.270Z,0
2018-01-04T01:40:19.374Z,0
2018-01-04T01:41:29.162Z,0
2018-01-04T01:42:38.957Z,0
2018-01-04T01:43:48.737Z,0
2018-01-04T01:44:58.536Z,0
2018-01-04T01:46:08.597Z,0
2018-01-04T01:47:18.390Z,0
2018-01-04T01:48:28.443Z,0
2018-01-04T01:49:38.526Z,0
2018-01-04T01:50:48.576Z,0
2018-01-04T01:51:58.684Z,0
2018-01-04T01:53:08.221Z,0
2018-01-04T01:54:18.256Z,0
2018-01-04T01:55:28.310Z,0
2018-01-04T01:56:38.124Z,0
2018-01-04T01:57:48.241Z,0
2018-01-04T01:58:58.044Z,0
2018-01-04T02:00:08.145Z,0
2018-01-04T02:01:17.933Z,0
2018-01-04T02:02:27.985Z,0
2018-01-04T02:03:38.045Z,0
2018-01-04T02:04:48.081Z,0
2018-01-04T02:05:58.196Z,0
2018-01-04T02:07:08.261Z,0
2018-01-04T02:08:18.064Z,0
2018-01-04T02:09:28.143Z,0
2018-01-04T02:10:38.198Z,0
2018-01-04T02:11:48.277Z,0
2018-01-04T02:12:58.326Z,0
2018-01-04T02:14:08.147Z,0
2018-01-04T02:15:18.313Z,0
2018-01-04T02:16:28.376Z,0
2018-01-04T02:17:38.431Z,0
2018-01-04T02:18:48.487Z,0
2018-01-04T02:19:58.538Z,0
2018-01-04T02:21:08.596Z,0
2018-01-04T02:22:18.648Z,0
2018-01-04T02:23:28.706Z,0
2018-01-04T02:24:38.781Z,0
2018-01-04T02:25:48.850Z,0
2018-01-04T02:26:58.645Z,0
2018-01-04T02:28:07.653Z,0
2018-01-04T02:29:17.705Z,0
2018-01-04T02:30:27.775Z,0
2018-01-04T02:31:37.578Z,0
2018-01-04T02:32:47.694Z,0
2018-01-04T02:33:57.228Z,0
2018-01-04T02:35:07.270Z,0
2018-01-04T02:36:17.341Z,0
2018-01-04T02:37:27.398Z,0
2018-01-04T02:38:37.212Z,0
2018-01-04T02:39:47.013Z,0
2018-01-04T02:40:57.085Z,0
2018-01-04T02:42:07.128Z,0
2018-01-04T02:43:16.917Z,0
2018-01-04T02:44:26.781Z,0
2018-01-04T02:45:36.842Z,0
2018-01-04T02:46:46.900Z,0
2018-01-04T02:47:56.487Z,0
2018-01-04T02:49:06.570Z,0
2018-01-04T02:50:16.618Z,0
2018-01-04T02:51:26.672Z,0
2018-01-04T02:52:36.472Z,0
2018-01-04T02:53:46.277Z,0
2018-01-04T02:54:56.081Z,0
2018-01-04T02:56:06.192Z,0
2018-01-04T02:57:16.259Z,0
2018-01-04T02:58:26.045Z,0
2018-01-04T02:59:35.834Z,0
2018-01-04T03:00:45.889Z,0
2018-01-04T03:01:55.995Z,0
2018-01-04T03:33:51.705Z,0
2018-01-04T03:35:01.765Z,0
2018-01-04T03:36:11.809Z,0
2018-01-04T03:37:21.920Z,0
2018-01-04T03:38:31.970Z,0
2018-01-04T03:39:42.070Z,0
2018-01-04T03:40:51.873Z,0
2018-01-04T03:42:01.671Z,0
2018-01-04T03:43:11.755Z,0
2018-01-04T03:44:21.800Z,0
2018-01-04T03:45:31.856Z,0
2018-01-04T03:46:41.908Z,0
2018-01-04T03:47:51.956Z,0
2018-01-04T03:49:02.019Z,0
2018-01-04T03:50:12.078Z,0
2018-01-04T03:51:22.217Z,0
2018-01-04T03:52:32.008Z,0
2018-01-04T03:53:41.809Z,0
2018-01-04T03:54:51.859Z,0
2018-01-04T03:56:01.915Z,0
2018-01-04T03:57:11.762Z,0
2018-01-04T03:58:21.563Z,0
2018-01-04T03:59:31.611Z,0
2018-01-04T04:00:41.677Z,0
2018-01-04T04:01:51.746Z,0
2018-01-04T04:03:01.799Z,0
2018-01-04T04:04:11.857Z,0
2018-01-04T04:05:21.910Z,0
2018-01-04T04:06:31.987Z,0
2018-01-04T04:07:42.049Z,0
2018-01-04T04:08:52.093Z,0
2018-01-04T04:10:01.886Z,0
2018-01-04T04:11:11.669Z,0
2018-01-04T04:12:21.731Z,0
2018-01-04T04:13:31.793Z,0
2018-01-04T04:14:41.861Z,0
2018-01-04T04:15:51.668Z,0
2018-01-04T04:17:01.470Z,0
2018-01-04T04:18:11.524Z,0
2018-01-04T04:19:21.316Z,0
2018-01-04T04:20:31.369Z,0
2018-01-04T04:21:41.157Z,0
2018-01-04T04:22:51.207Z,0
2018-01-04T04:24:01.275Z,0
2018-01-04T04:25:11.329Z,0
2018-01-04T04:26:21.130Z,0
2018-01-04T04:27:30.918Z,0
2018-01-04T04:28:40.728Z,0
2018-01-04T04:29:50.790Z,0
2018-01-04T04:31:00.327Z,0
2018-01-04T04:32:09.597Z,0
2018-01-04T04:33:20.420Z,0
2018-01-04T04:34:30.227Z,0
2018-01-04T04:35:40.016Z,0
2018-01-04T04:36:50.071Z,0
2018-01-04T04:37:59.907Z,0
2018-01-04T04:39:09.713Z,0
2018-01-04T04:40:19.505Z,0
2018-01-04T04:41:29.558Z,0
2018-01-04T04:42:39.364Z,0
2018-01-04T04:43:49.432Z,0
2018-01-04T04:44:59.496Z,0
2018-01-04T04:46:09.569Z,0
2018-01-04T04:47:19.641Z,0
2018-01-04T04:48:29.700Z,0
2018-01-04T04:49:39.506Z,0
2018-01-04T04:50:49.539Z,0
2018-01-04T04:51:59.608Z,0
2018-01-04T04:53:09.672Z,0
2018-01-04T04:54:19.722Z,0
2018-01-04T04:55:29.866Z,0
2018-01-04T04:56:39.657Z,0
2018-01-04T04:57:49.176Z,0
2018-01-04T04:58:58.974Z,0
2018-01-04T05:00:09.284Z,0
2018-01-04T05:01:19.444Z,0
2018-01-04T05:02:29.500Z,0
2018-01-04T05:03:39.580Z,0
2018-01-04T05:04:49.630Z,0
2018-01-04T05:05:59.755Z,0
2018-01-04T05:07:09.286Z,0
2018-01-04T05:08:19.342Z,0
2018-01-04T05:09:29.401Z,0
2018-01-04T05:10:39.213Z,0
2018-01-04T05:11:49.294Z,0
2018-01-04T05:12:59.403Z,0
2018-01-04T05:14:09.472Z,0
2018-01-04T05:15:19.268Z,0
2018-01-04T05:16:29.328Z,0
2018-01-04T05:17:39.378Z,0
2018-01-04T05:18:49.487Z,0
2018-01-04T05:19:59.275Z,0
2018-01-04T05:21:09.351Z,0
2018-01-04T05:22:19.405Z,0
2018-01-04T05:23:29.208Z,0
2018-01-04T05:24:39.262Z,0
2018-01-04T05:25:49.325Z,0
2018-01-04T05:26:59.380Z,0
2018-01-04T05:28:09.182Z,0
2018-01-04T05:29:19.236Z,0
2018-01-04T05:30:29.296Z,0
2018-01-04T05:31:39.093Z,0
2018-01-04T05:32:49.150Z,0
2018-01-04T05:33:59.211Z,0
2018-01-04T05:35:09.004Z,0
2018-01-04T05:36:19.061Z,0
2018-01-04T05:37:29.166Z,0
2018-01-04T05:38:39.223Z,0
2018-01-04T05:39:49.015Z,0
2018-01-04T05:40:58.904Z,0
2018-01-04T05:42:09.009Z,0
2018-01-04T05:43:18.803Z,0
2018-01-04T05:44:28.868Z,0
2018-01-04T05:45:38.683Z,0
2018-01-04T05:46:48.745Z,0
2018-01-04T05:47:58.812Z,0
2018-01-04T05:49:08.670Z,0
2018-01-04T05:50:18.724Z,0
2018-01-04T05:51:28.765Z,0
2018-01-04T05:52:38.831Z,0
2018-01-04T05:53:48.879Z,0
2018-01-04T05:54:58.933Z,0
2018-01-04T05:56:08.987Z,0
2018-01-04T05:57:19.047Z,0
2018-01-04T05:58:29.098Z,0
2018-01-04T05:59:39.154Z,0
2018-01-04T06:00:49.223Z,0
2018-01-04T06:01:59.298Z,0
2018-01-04T06:03:09.183Z,0
2018-01-04T06:04:19.239Z,0
2018-01-04T06:05:29.046Z,0
2018-01-04T06:06:38.869Z,0
2018-01-04T06:07:48.664Z,0
2018-01-04T06:08:58.720Z,0
2018-01-04T06:10:08.256Z,0
2018-01-04T06:11:18.118Z,0
2018-01-04T06:12:28.163Z,0
2018-01-04T06:13:38.225Z,0
2018-01-04T06:14:48.278Z,0
2018-01-04T06:15:57.830Z,0
2018-01-04T06:17:07.928Z,0
2018-01-04T06:18:17.975Z,0
2018-01-04T06:19:29.448Z,0
2018-01-04T06:20:39.242Z,0
2018-01-04T06:21:49.294Z,0
2018-01-04T06:22:58.878Z,0
2018-01-04T06:24:08.941Z,0
2018-01-04T06:25:18.738Z,0
2018-01-04T06:26:28.533Z,0
2018-01-04T06:27:38.083Z,0
2018-01-04T06:28:48.144Z,0
2018-01-04T06:29:57.941Z,0
2018-01-04T06:31:07.995Z,0
2018-01-04T06:32:17.791Z,0
2018-01-04T06:33:27.867Z,0
2018-01-04T06:34:37.967Z,0
2018-01-04T06:35:48.031Z,0
2018-01-04T06:36:58.101Z,0
2018-01-04T06:38:07.950Z,0
2018-01-04T06:39:18.019Z,0
2018-01-04T06:40:27.801Z,0
2018-01-04T06:41:37.606Z,0
2018-01-04T06:42:47.735Z,0
2018-01-04T06:43:57.806Z,0
2018-01-04T06:45:07.618Z,5
2018-01-04T06:46:17.721Z,5
2018-01-04T06:47:27.768Z,5
2018-01-04T06:48:37.579Z,5
2018-01-04T06:49:47.626Z,5
2018-01-04T06:50:57.685Z,5
2018-01-04T06:52:07.799Z,5
2018-01-04T06:53:17.856Z,5
2018-01-04T06:54:27.388Z,5
2018-01-04T06:55:37.206Z,5
2018-01-04T06:56:47.263Z,10
2018-01-04T06:57:57.349Z,10
2018-01-04T06:59:07.154Z,10
2018-01-04T07:00:17.211Z,10
2018-01-04T07:01:27.010Z,10
2018-01-04T07:02:36.809Z,10
2018-01-04T07:03:46.870Z,10
2018-01-04T07:04:56.662Z,15
2018-01-04T07:06:06.727Z,15
2018-01-04T07:07:16.802Z,15
2018-01-04T07:08:26.594Z,15
2018-01-04T07:09:36.657Z,15
2018-01-04T07:10:46.730Z,15
2018-01-04T07:11:56.768Z,20
2018-01-04T07:13:06.901Z,20
2018-01-04T07:14:16.722Z,20
2018-01-04T07:15:26.550Z,20
2018-01-04T07:16:36.351Z,20
2018-01-04T07:17:46.423Z,20
2018-01-04T07:18:56.474Z,25
2018-01-04T07:20:06.286Z,25
2018-01-04T07:21:16.368Z,25
2018-01-04T07:22:26.430Z,25
2018-01-04T07:23:36.491Z,30
2018-01-04T07:24:46.319Z,30
2018-01-04T07:25:56.121Z,30
2018-01-04T07:27:05.695Z,30
2018-01-04T07:28:15.485Z,30
2018-01-04T07:29:25.548Z,35
2018-01-04T07:30:35.611Z,35
2018-01-04T07:31:45.668Z,35
2018-01-04T07:32:55.474Z,35
2018-01-04T07:34:05.272Z,35
2018-01-04T07:35:15.079Z,35
2018-01-04T07:36:25.141Z,35
2018-01-04T07:37:35.251Z,40
2018-01-04T07:38:45.314Z,40
2018-01-04T07:39:55.112Z,45
2018-01-04T07:41:04.911Z,50
2018-01-04T07:42:14.699Z,40
2018-01-04T07:43:24.500Z,40
2018-01-04T07:44:34.323Z,40
2018-01-04T07:45:44.379Z,40
2018-01-04T07:46:54.437Z,40
2018-01-04T07:48:04.513Z,40
2018-01-04T07:49:14.582Z,45
2018-01-04T07:50:24.650Z,45
2018-01-04T07:51:34.750Z,55
2018-01-04T07:52:44.560Z,50
2018-01-04T07:53:54.603Z,45
2018-01-04T07:55:05.014Z,45
2018-01-04T07:56:15.161Z,45
2018-01-04T07:57:24.945Z,50
2018-01-04T07:58:35.003Z,50
2018-01-04T07:59:45.061Z,50
2018-01-04T08:00:54.907Z,50
2018-01-04T08:02:04.760Z,50
2018-01-04T08:03:14.839Z,50
2018-01-04T08:04:24.373Z,50
2018-01-04T08:05:34.167Z,50
2018-01-04T08:06:44.241Z,50
2018-01-04T08:07:54.298Z,50
2018-01-04T08:09:04.104Z,50
2018-01-04T08:10:14.183Z,50
2018-01-04T08:11:24.225Z,50
2018-01-04T08:12:34.056Z,55
2018-01-04T08:13:45.031Z,55
2018-01-04T08:14:54.842Z,55
2018-01-04T08:16:04.912Z,80
2018-01-04T08:17:14.989Z,65
2018-01-04T08:18:25.035Z,85
2018-01-04T08:19:35.117Z,90
2018-01-04T08:20:44.936Z,85
2018-01-04T08:21:55.012Z,85
2018-01-04T08:23:05.236Z,85
2018-01-04T08:24:15.299Z,80
2018-01-04T08:25:25.354Z,75
2018-01-04T08:26:35.420Z,75
2018-01-04T08:27:45.223Z,70
2018-01-04T08:28:55.277Z,65
2018-01-04T08:30:05.070Z,65
2018-01-04T08:31:15.115Z,65
2018-01-04T08:32:25.181Z,60
2018-01-04T08:33:35.241Z,60
2018-01-04T08:34:46.041Z,60
2018-01-04T08:35:56.121Z,60
2018-01-04T08:37:05.917Z,65
2018-01-04T08:38:15.985Z,65
2018-01-04T08:39:26.053Z,75
2018-01-04T08:40:36.112Z,105
2018-01-04T08:41:46.163Z,85
2018-01-04T08:42:56.268Z,80
2018-01-04T08:44:06.347Z,100
2018-01-04T08:45:16.148Z,110
2018-01-04T08:46:26.221Z,115
2018-01-04T08:47:36.022Z,115
2018-01-04T08:48:46.079Z,110
2018-01-04T08:49:56.143Z,110
2018-01-04T08:51:06.201Z,110
2018-01-04T08:52:16.269Z,115
2018-01-04T08:53:26.345Z,115
2018-01-04T08:54:36.135Z,115
2018-01-04T08:55:45.988Z,115
2018-01-04T08:56:56.035Z,120
2018-01-04T08:58:06.123Z,120
2018-01-04T08:59:16.181Z,120
2018-01-04T09:00:26.287Z,120
2018-01-04T09:01:36.367Z,120
2018-01-04T09:02:46.160Z,120
2018-01-04T09:03:55.947Z,125
2018-01-04T09:05:06.005Z,120
2018-01-04T09:06:15.810Z,120
2018-01-04T09:07:25.880Z,120
2018-01-04T09:08:35.935Z,120
2018-01-04T09:09:45.761Z,125
2018-01-04T09:10:55.809Z,125
2018-01-04T09:12:05.916Z,125
2018-01-04T09:13:15.721Z,125
2018-01-04T09:14:25.786Z,130
2018-01-04T09:15:35.860Z,125
2018-01-04T09:16:45.945Z,130
2018-01-04T09:17:55.742Z,130
2018-01-04T09:19:05.827Z,130
2018-01-04T09:20:15.631Z,130
2018-01-04T09:21:25.767Z,130
2018-01-04T09:22:35.813Z,140
2018-01-04T09:23:45.652Z,130
2018-01-04T09:24:55.714Z,90
2018-01-04T09:26:05.511Z,140
2018-01-04T09:27:15.325Z,140
2018-01-04T09:28:25.115Z,140
2018-01-04T09:29:35.227Z,140
2018-01-04T09:30:45.299Z,145
2018-01-04T09:31:55.431Z,145
2018-01-04T09:33:04.981Z,145
2018-01-04T09:34:15.050Z,145
2018-01-04T09:35:25.128Z,80
2018-01-04T09:36:35.191Z,85
2018-01-04T09:37:45.243Z,115
2018-01-04T09:38:55.305Z,145
2018-01-04T09:40:05.097Z,145
2018-01-04T09:41:14.900Z,145
2018-01-04T09:42:24.967Z,155
2018-01-04T09:43:35.039Z,150
2018-01-04T09:44:45.105Z,155
2018-01-04T09:45:54.918Z,160
2018-01-04T09:47:04.990Z,165
2018-01-04T09:48:15.060Z,165
2018-01-04T09:49:24.919Z,170
2018-01-04T09:50:34.705Z,170
2018-01-04T09:51:44.766Z,170
2018-01-04T09:52:54.063Z,170
2018-01-04T09:54:03.881Z,110
2018-01-04T09:55:13.966Z,120
2018-01-04T09:56:23.763Z,175
2018-01-04T09:57:33.833Z,115
2018-01-04T09:58:43.701Z,120
2018-01-04T09:59:53.931Z,130
2018-01-04T10:01:03.730Z,140
2018-01-04T10:02:13.784Z,145
2018-01-04T10:03:23.832Z,135
2018-01-04T10:04:33.639Z,125
2018-01-04T10:05:43.710Z,135
2018-01-04T10:06:53.761Z,125
2018-01-04T10:08:03.825Z,135
2018-01-04T10:09:13.890Z,135
2018-01-04T10:10:24.034Z,125
2018-01-04T10:11:34.107Z,120
2018-01-04T10:12:44.177Z,125
2018-01-04T10:13:54.248Z,115
2018-01-04T10:15:04.366Z,130
2018-01-04T10:16:14.461Z,115
2018-01-04T10:17:24.517Z,120
2018-01-04T10:18:34.596Z,110
2018-01-04T10:19:44.392Z,115
2018-01-04T10:20:54.210Z,115
2018-01-04T10:22:04.008Z,110
2018-01-04T10:23:14.068Z,115
2018-01-04T10:24:24.143Z,115
2018-01-04T10:25:33.946Z,115
2018-01-04T10:26:44.036Z,115
2018-01-04T10:27:54.111Z,115
2018-01-04T10:29:03.912Z,110
2018-01-04T10:30:13.193Z,110
2018-01-04T10:31:23.280Z,105
2018-01-04T10:32:33.365Z,110
2018-01-04T10:33:43.490Z,100
2018-01-04T10:34:53.563Z,105
2018-01-04T10:36:03.627Z,155
2018-01-04T10:37:13.187Z,125
2018-01-04T10:38:23.264Z,135
2018-01-04T10:39:33.337Z,150
2018-01-04T10:40:43.410Z,175
2018-01-04T10:41:53.200Z,170
2018-01-04T10:43:03.261Z,160
2018-01-04T10:44:13.365Z,165
2018-01-04T10:45:23.427Z,145
2018-01-04T10:46:33.215Z,140
2018-01-04T10:47:43.274Z,130
2018-01-04T10:48:53.096Z,135
2018-01-04T10:50:02.928Z,125
2018-01-04T10:51:12.994Z,125
2018-01-04T10:52:22.770Z,130
2018-01-04T10:53:32.829Z,125
2018-01-04T10:54:42.900Z,120
2018-01-04T10:55:52.968Z,120
2018-01-04T10:57:03.031Z,120
2018-01-04T10:58:12.842Z,115
2018-01-04T10:59:22.647Z,115
2018-01-04T11:00:32.763Z,115
2018-01-04T11:01:42.308Z,110
2018-01-04T11:02:52.385Z,110
2018-01-04T11:04:02.517Z,110
2018-01-04T11:05:12.572Z,115
2018-01-04T11:06:22.637Z,110
2018-01-04T11:07:32.433Z,110
2018-01-04T11:08:42.498Z,110
2018-01-04T11:09:52.036Z,110
2018-01-04T11:11:01.853Z,105
2018-01-04T11:12:11.923Z,105
2018-01-04T11:13:22.017Z,110
2018-01-04T11:14:32.432Z,115
2018-01-04T11:15:42.248Z,115
2018-01-04T11:16:52.321Z,115
2018-01-04T11:18:02.116Z,115
2018-01-04T11:19:12.165Z,115
2018-01-04T11:20:22.238Z,115
2018-01-04T11:21:32.305Z,115
2018-01-04T11:22:42.365Z,120
2018-01-04T11:23:52.439Z,125
2018-01-04T11:25:02.257Z,120
2018-01-04T11:26:11.806Z,120
2018-01-04T11:27:21.903Z,120
2018-01-04T11:28:31.965Z,120
2018-01-04T11:29:41.773Z,120
2018-01-04T11:30:51.845Z,120
2018-01-04T11:32:01.913Z,115
2018-01-04T11:33:11.718Z,115
2018-01-04T11:34:21.772Z,115
2018-01-04T11:35:31.831Z,120
2018-01-04T11:36:41.697Z,115
2018-01-04T11:37:51.817Z,115
2018-01-04T11:39:01.886Z,115
2018-01-04T11:40:11.718Z,115
2018-01-04T11:41:21.796Z,115
2018-01-04T11:42:31.915Z,115
2018-01-04T11:43:41.718Z,115
2018-01-04T11:44:51.779Z,110
2018-01-04T11:46:01.838Z,110
2018-01-04T11:47:11.899Z,110
2018-01-04T11:48:22.024Z,115
2018-01-04T11:49:31.824Z,115
2018-01-04T11:50:41.630Z,115
2018-01-04T11:51:51.436Z,115
2018-01-04T11:53:01.505Z,115
2018-01-04T11:54:11.635Z,115
2018-01-04T11:55:21.439Z,115
2018-01-04T11:56:30.982Z,115
2018-01-04T11:57:41.028Z,110
2018-01-04T11:58:51.097Z,110
2018-01-04T12:00:01.235Z,105
2018-01-04T12:01:11.314Z,105
2018-01-04T12:02:21.110Z,105
2018-01-04T12:03:30.897Z,105
2018-01-04T12:04:40.744Z,100
2018-01-04T12:05:50.599Z,100
2018-01-04T12:07:00.404Z,100
2018-01-04T12:08:10.474Z,100
2018-01-04T12:09:20.537Z,100
2018-01-04T12:10:30.601Z,100
2018-01-04T12:11:40.732Z,95
2018-01-04T12:12:50.814Z,95
2018-01-04T12:14:00.886Z,100
2018-01-04T12:15:10.941Z,100
2018-01-04T12:16:20.495Z,100
2018-01-04T12:17:30.363Z,100
2018-01-04T12:18:40.438Z,100
2018-01-04T12:19:50.232Z,100
2018-01-04T12:21:00.336Z,100
2018-01-04T12:22:10.412Z,100
2018-01-04T12:23:20.532Z,100
2018-01-04T12:24:30.623Z,95
2018-01-04T12:25:40.678Z,95
2018-01-04T12:26:50.739Z,90
2018-01-04T12:28:00.822Z,90
2018-01-04T12:29:10.698Z,85
2018-01-04T12:30:20.783Z,85
2018-01-04T12:31:30.886Z,80
2018-01-04T12:32:40.987Z,75
2018-01-04T12:33:51.073Z,75
2018-01-04T12:35:00.920Z,75
2018-01-04T12:36:11.041Z,75
2018-01-04T12:37:21.114Z,75
2018-01-04T12:38:31.187Z,75
2018-01-04T12:39:41.255Z,70
2018-01-04T12:40:51.070Z,70
2018-01-04T12:42:00.880Z,70
2018-01-04T12:43:10.695Z,70
2018-01-04T12:44:20.749Z,70
2018-01-04T12:45:30.835Z,65
2018-01-04T12:46:40.901Z,70
2018-01-04T12:47:50.727Z,65
2018-01-04T12:49:00.805Z,60
2018-01-04T12:50:10.880Z,60
2018-01-04T12:51:20.935Z,60
2018-01-04T12:52:30.991Z,60
2018-01-04T12:53:41.053Z,60
2018-01-04T12:54:51.104Z,60
2018-01-04T12:56:00.372Z,65
2018-01-04T12:57:10.444Z,65
2018-01-04T12:58:20.526Z,60
2018-01-04T12:59:30.052Z,60
2018-01-04T13:00:40.115Z,55
2018-01-04T13:01:49.671Z,55
2018-01-04T13:02:59.476Z,55
2018-01-04T13:04:09.276Z,55
2018-01-04T13:05:19.359Z,55
2018-01-04T13:06:29.416Z,55
2018-01-04T13:07:39.479Z,55
2018-01-04T13:08:49.272Z,55
2018-01-04T13:09:59.332Z,50
2018-01-04T13:11:09.399Z,55
2018-01-04T13:12:19.293Z,55
2018-01-04T13:13:29.361Z,55
2018-01-04T13:14:39.430Z,60
2018-01-04T13:15:49.555Z,60
2018-01-04T13:16:59.632Z,60
2018-01-04T13:18:09.716Z,60
2018-01-04T13:19:19.782Z,60
2018-01-04T13:20:29.585Z,60
2018-01-04T13:21:39.115Z,60
2018-01-04T13:22:49.176Z,55
2018-01-04T13:23:59.003Z,55
2018-01-04T13:25:09.059Z,50
2018-01-04T13:26:19.130Z,50
2018-01-04T13:27:28.943Z,50
2018-01-04T13:28:39.024Z,45
2018-01-04T13:29:48.844Z,45
2018-01-04T13:30:58.908Z,45
2018-01-04T13:32:08.766Z,45
2018-01-04T13:33:18.879Z,45
2018-01-04T13:34:28.968Z,50
2018-01-04T13:35:39.104Z,50
2018-01-04T13:36:49.163Z,50
2018-01-04T13:37:59.258Z,50
2018-01-04T13:39:09.955Z,50
2018-01-04T13:40:20.027Z,45
2018-01-04T13:41:30.118Z,45
2018-01-04T13:42:40.173Z,45
2018-01-04T13:43:50.252Z,45
2018-01-04T13:45:00.323Z,50
2018-01-04T13:46:10.387Z,50
2018-01-04T13:47:20.520Z,55
2018-01-04T13:48:30.585Z,55
2018-01-04T13:49:40.400Z,55
2018-01-04T13:50:50.538Z,50
2018-01-04T13:52:00.598Z,50
2018-01-04T13:53:10.398Z,45
2018-01-04T13:54:20.461Z,40
2018-01-04T13:55:30.523Z,40
2018-01-04T13:56:40.593Z,35
2018-01-04T13:57:50.682Z,40
2018-01-04T13:59:00.750Z,40
2018-01-04T14:00:10.571Z,35
2018-01-04T14:01:20.643Z,35
2018-01-04T14:02:30.718Z,35
2018-01-04T14:03:40.543Z,35
2018-01-04T14:04:50.608Z,30
2018-01-04T14:06:00.689Z,30
2018-01-04T14:07:10.757Z,30
2018-01-04T14:08:20.330Z,30
2018-01-04T14:09:30.128Z,30
2018-01-04T14:10:40.195Z,25
2018-01-04T14:11:50.331Z,25
2018-01-04T14:13:01.433Z,25
2018-01-04T14:14:11.517Z,25
2018-01-04T14:15:21.589Z,20
2018-01-04T14:16:31.663Z,20
2018-01-04T14:17:41.744Z,20
2018-01-04T14:18:51.827Z,20
2018-01-04T14:20:01.914Z,15
2018-01-04T14:21:11.973Z,15
2018-01-04T14:22:21.516Z,15
2018-01-04T14:23:31.365Z,15
2018-01-04T14:24:41.435Z,15
2018-01-04T14:25:51.476Z,15
2018-01-04T14:27:01.539Z,10
2018-01-04T14:28:11.355Z,10
2018-01-04T14:29:21.426Z,10
2018-01-04T14:30:31.503Z,10
2018-01-04T14:31:41.582Z,10
2018-01-04T14:32:51.637Z,10
2018-01-04T14:34:01.704Z,10
2018-01-04T14:35:11.515Z,10
2018-01-04T14:36:21.579Z,10
2018-01-04T14:37:31.639Z,10
2018-01-04T14:38:41.731Z,10
2018-01-04T14:39:51.804Z,10
2018-01-04T14:41:01.902Z,10
2018-01-04T14:42:11.968Z,5
2018-01-04T14:43:22.984Z,5
2018-01-04T14:44:33.040Z,5
2018-01-04T14:45:42.852Z,5
2018-01-04T14:46:52.915Z,5
2018-01-04T14:48:02.988Z,5
2018-01-04T14:49:12.801Z,5
2018-01-04T14:50:22.661Z,5
2018-01-04T14:51:32.734Z,5
2018-01-04T14:52:42.793Z,5
2018-01-04T14:53:52.371Z,5
2018-01-04T14:55:02.456Z,5
2018-01-04T14:56:13.821Z,0
2018-01-04T14:57:23.875Z,0
2018-01-04T14:58:33.956Z,0
2018-01-04T14:59:43.765Z,0
2018-01-04T15:00:53.839Z,0
2018-01-04T15:02:03.902Z,0
2018-01-04T15:03:13.718Z,0
2018-01-04T15:04:23.800Z,0
2018-01-04T15:05:33.874Z,0
2018-01-04T15:06:43.675Z,0
2018-01-04T15:07:53.787Z,0
2018-01-04T15:09:03.877Z,0
2018-01-04T15:10:13.929Z,0
2018-01-04T15:11:23.738Z,0
2018-01-04T15:12:33.547Z,0
2018-01-04T15:13:43.363Z,0
2018-01-04T15:14:53.451Z,0
2018-01-04T15:16:03.262Z,0
2018-01-04T15:17:13.052Z,0
2018-01-04T15:18:22.882Z,0
2018-01-04T15:19:32.942Z,0
2018-01-04T15:20:42.988Z,0
2018-01-04T15:21:52.775Z,0
2018-01-04T15:23:02.572Z,0
2018-01-04T15:24:12.369Z,0
2018-01-04T15:25:22.228Z,0
2018-01-04T15:26:32.060Z,0
2018-01-04T15:27:42.136Z,0
2018-01-04T15:28:52.226Z,0
2018-01-04T15:30:02.023Z,0
2018-01-04T15:31:12.160Z,0
2018-01-04T15:32:21.997Z,0
2018-01-04T15:33:32.079Z,0
2018-01-04T15:34:42.142Z,0
2018-01-04T15:35:52.208Z,0
2018-01-04T15:37:02.264Z,0
2018-01-04T15:38:12.354Z,0
2018-01-04T15:39:22.433Z,0
2018-01-04T15:40:32.233Z,0
2018-01-04T15:41:42.023Z,0
2018-01-04T15:42:51.849Z,0
2018-01-04T15:44:01.924Z,0
2018-01-04T15:45:11.218Z,0
2018-01-04T15:46:21.045Z,0
2018-01-04T15:47:30.861Z,0
2018-01-04T15:48:40.978Z,0
2018-01-04T15:49:51.037Z,0
2018-01-04T15:51:01.126Z,0
2018-01-04T15:52:11.212Z,0
2018-01-04T15:53:21.020Z,0
2018-01-04T15:54:31.131Z,0
2018-01-04T15:55:40.948Z,0
2018-01-04T15:56:50.744Z,0
2018-01-04T15:58:00.275Z,0
2018-01-04T15:59:10.334Z,0
2018-01-04T16:00:20.183Z,0
2018-01-04T16:01:30.305Z,0
2018-01-04T16:02:40.406Z,0
2018-01-04T16:03:50.228Z,0
2018-01-04T16:05:00.055Z,0
2018-01-04T16:06:09.856Z,0
2018-01-04T16:07:19.655Z,0
2018-01-04T16:08:29.746Z,0
2018-01-04T16:09:39.022Z,0
2018-01-04T16:10:49.126Z,0
2018-01-04T16:11:59.219Z,0
2018-01-04T16:13:09.031Z,0
2018-01-04T16:14:18.840Z,0
2018-01-04T16:15:28.646Z,0
2018-01-04T16:16:38.444Z,0
2018-01-04T16:17:47.989Z,0
2018-01-04T16:18:57.814Z,0
2018-01-04T16:20:07.889Z,0
2018-01-04T16:21:18.878Z,0
2018-01-04T16:22:28.677Z,0
2018-01-04T16:23:38.805Z,0
2018-01-04T16:24:48.892Z,0
2018-01-04T16:25:58.443Z,0
2018-01-04T16:27:08.342Z,0
2018-01-04T16:28:18.524Z,0
2018-01-04T16:29:28.580Z,0
2018-01-04T16:30:38.645Z,0
2018-01-04T16:31:48.714Z,0
2018-01-04T16:32:58.263Z,0
2018-01-04T16:34:08.342Z,0
2018-01-04T16:35:18.420Z,0
2018-01-04T16:36:28.210Z,0
2018-01-04T16:37:38.274Z,0
2018-01-04T16:38:48.336Z,0
2018-01-04T16:39:58.133Z,0
2018-01-04T16:41:08.248Z,0
2018-01-04T16:42:18.052Z,0
2018-01-04T16:43:27.856Z,0
2018-01-04T16:44:37.943Z,0
2018-01-04T16:45:47.775Z,0
2018-01-04T16:46:57.893Z,0
2018-01-04T16:48:07.946Z,0
2018-01-04T16:49:18.034Z,0
2018-01-04T16:50:27.891Z,0
2018-01-04T16:51:37.934Z,0
2018-01-04T16:52:48.002Z,0
2018-01-04T16:53:58.077Z,0
2018-01-04T16:55:08.133Z,0
2018-01-04T16:56:18.225Z,0
2018-01-04T16:57:27.761Z,0
2018-01-04T16:58:37.933Z,0
2018-01-04T16:59:48.068Z,0
2018-01-04T17:00:58.139Z,0
2018-01-04T17:02:07.944Z,0
2018-01-04T17:03:17.743Z,0
2018-01-04T17:04:27.561Z,0
2018-01-04T17:05:37.650Z,0
2018-01-04T17:06:47.723Z,0
2018-01-04T17:07:57.781Z,0
2018-01-04T17:09:07.850Z,0
2018-01-04T17:10:18.005Z,0
2018-01-04T17:11:28.082Z,0
2018-01-04T17:12:38.191Z,0
2018-01-04T17:13:48.258Z,0
2018-01-04T17:14:58.329Z,0
2018-01-04T17:16:08.456Z,0
2018-01-04T17:17:18.545Z,0
2018-01-04T17:18:28.621Z,0
2018-01-04T17:19:38.691Z,0